createdAt,value
2018-07-04T00:01:05.056Z,24.60
2018-07-04T00:03:44.870Z,24.50
2018-07-04T00:06:24.681Z,24.50
2018-07-04T00:09:05.773Z,24.50
2018-07-04T00:11:45.575Z,24.60
2018-07-04T00:14:25.327Z,24.50
2018-07-04T00:17:05.136Z,24.60
2018-07-04T00:19:44.763Z,24.50
2018-07-04T00:22:24.617Z,24.60
2018-07-04T00:25:04.436Z,24.60
2018-07-04T00:27:45.435Z,24.60
2018-07-04T00:30:25.180Z,24.60
2018-07-04T00:33:04.951Z,24.60
2018-07-04T00:35:44.652Z,24.60
2018-07-04T00:38:24.473Z,24.60
2018-07-04T00:41:04.101Z,24.60
2018-07-04T00:43:43.858Z,24.50
2018-07-04T00:46:23.533Z,24.50
2018-07-04T00:49:03.288Z,24.50
2018-07-04T00:51:42.946Z,24.50
2018-07-04T00:54:22.645Z,24.50
2018-07-04T00:57:02.333Z,24.50
2018-07-04T00:59:42.152Z,24.50
2018-07-04T01:02:22.795Z,24.40
2018-07-04T01:05:02.480Z,24.40
2018-07-04T01:07:42.124Z,24.40
2018-07-04T01:10:21.882Z,24.40
2018-07-04T01:13:01.635Z,24.40
2018-07-04T01:15:41.359Z,24.40
2018-07-04T01:18:21.164Z,24.40
2018-07-04T01:21:06.317Z,24.40
2018-07-04T01:23:46.152Z,24.30
2018-07-04T01:26:25.938Z,24.30
2018-07-04T01:31:39.447Z,24.30
2018-07-04T01:34:19.190Z,24.20
2018-07-04T01:36:58.949Z,24.20
2018-07-04T01:39:38.780Z,24.20
2018-07-04T01:42:18.286Z,24.10
2018-07-04T01:44:57.879Z,24.10
2018-07-04T01:47:37.571Z,24.10
2018-07-04T01:50:17.192Z,24.10
2018-07-04T01:52:56.838Z,24.10
2018-07-04T01:58:10.350Z,24.00
2018-07-04T02:00:50.120Z,24.00
2018-07-04T02:03:29.782Z,24.00
2018-07-04T02:06:09.495Z,24.00
2018-07-04T02:08:50.081Z,23.90
2018-07-04T02:11:29.906Z,23.90
2018-07-04T02:14:09.711Z,23.90
2018-07-04T02:16:49.425Z,23.90
2018-07-04T02:19:29.112Z,23.80
2018-07-04T02:22:08.699Z,23.80
2018-07-04T02:24:48.411Z,23.70
2018-07-04T02:27:28.089Z,23.70
2018-07-04T02:30:07.811Z,23.70
2018-07-04T02:32:47.514Z,23.70
2018-07-04T02:35:27.087Z,23.70
2018-07-04T02:40:40.374Z,23.70
2018-07-04T02:43:20.013Z,23.70
2018-07-04T02:45:59.629Z,23.70
2018-07-04T02:48:39.343Z,23.70
2018-07-04T02:51:19.229Z,23.60
2018-07-04T02:53:58.940Z,23.60
2018-07-04T02:56:38.442Z,23.60
2018-07-04T02:59:18.164Z,23.60
2018-07-04T03:06:46.847Z,23.50
2018-07-04T03:12:00.212Z,23.40
2018-07-04T03:14:40.247Z,23.40
2018-07-04T03:17:20.015Z,23.40
2018-07-04T03:19:59.718Z,23.30
2018-07-04T03:22:39.502Z,23.30
2018-07-04T03:25:19.351Z,23.40
2018-07-04T03:27:59.215Z,23.40
2018-07-04T03:30:39.204Z,23.30
2018-07-04T03:33:18.980Z,23.40
2018-07-04T03:35:58.540Z,23.30
2018-07-04T03:38:38.160Z,23.40
2018-07-04T03:41:17.859Z,23.30
2018-07-04T03:43:57.688Z,23.30
2018-07-04T03:46:37.271Z,23.30
2018-07-04T03:49:16.880Z,23.30
2018-07-04T03:51:56.373Z,23.30
2018-07-04T03:54:36.053Z,23.30
2018-07-04T03:57:15.708Z,23.30
2018-07-04T03:59:55.267Z,23.30
2018-07-04T04:02:34.952Z,23.20
2018-07-04T04:05:14.603Z,23.20
2018-07-04T04:07:54.304Z,23.20
2018-07-04T04:10:33.982Z,23.20
2018-07-04T04:13:13.760Z,23.20
2018-07-04T04:15:53.577Z,23.20
2018-07-04T04:18:33.372Z,23.20
2018-07-04T04:21:12.969Z,23.30
2018-07-04T04:23:52.867Z,23.20
2018-07-04T04:26:32.609Z,23.20
2018-07-04T04:29:12.402Z,23.20
